sensor_id;sensor_type;location;lat;lon;timestamp;pressure;altitude;pressure_sealevel;temperature;humidity
29903;BME280;30288;50.514;9.678;2023-04-09T00:01:42;99549.91;;;6.07;100.00
29903;BME280;30288;50.514;9.678;2023-04-09T00:03:47;99549.06;;;6.09;100.00
29903;BME280;30288;50.514;9.678;2023-04-09T00:05:53;99545.72;;;6.10;100.00
29903;BME280;30288;50.514;9.678;2023-04-09T00:07:58;99539.06;;;6.15;100.00
29903;BME280;30288;50.514;9.678;2023-04-09T00:10:08;99539.94;;;6.28;100.00
29903;BME280;30288;50.514;9.678;2023-04-09T00:12:13;99544.13;;;6.34;100.00
29903;BME280;30288;50.514;9.678;2023-04-09T00:14:18;99544.94;;;6.37;100.00
29903;BME280;30288;50.514;9.678;2023-04-09T00:16:24;99539.09;;;6.32;100.00
29903;BME280;30288;50.514;9.678;2023-04-09T00:18:29;99537.44;;;6.30;100.00
29903;BME280;30288;50.514;9.678;2023-04-09T00:20:34;99540.78;;;6.33;100.00
29903;BME280;30288;50.514;9.678;2023-04-09T00:22:39;99545.78;;;6.29;100.00
29903;BME280;30288;50.514;9.678;2023-04-09T00:24:44;99535.75;;;6.23;100.00
29903;BME280;30288;50.514;9.678;2023-04-09T00:26:52;99547.44;;;6.22;100.00
29903;BME280;30288;50.514;9.678;2023-04-09T00:28:58;99543.25;;;6.23;100.00
29903;BME280;30288;50.514;9.678;2023-04-09T00:31:03;99537.44;;;6.21;100.00
29903;BME280;30288;50.514;9.678;2023-04-09T00:33:08;99539.94;;;6.22;100.00
29903;BME280;30288;50.514;9.678;2023-04-09T00:35:14;99529.06;;;6.19;100.00
29903;BME280;30288;50.514;9.678;2023-04-09T00:37:19;99529.06;;;6.15;100.00
29903;BME280;30288;50.514;9.678;2023-04-09T00:39:25;99543.22;;;6.10;100.00
29903;BME280;30288;50.514;9.678;2023-04-09T00:41:30;99533.25;;;6.12;100.00
29903;BME280;30288;50.514;9.678;2023-04-09T00:43:38;99534.06;;;6.09;100.00
29903;BME280;30288;50.514;9.678;2023-04-09T00:45:43;99540.72;;;6.07;100.00
29903;BME280;30288;50.514;9.678;2023-04-09T00:47:49;99534.91;;;6.07;100.00
29903;BME280;30288;50.514;9.678;2023-04-09T00:49:55;99533.22;;;6.06;100.00
29903;BME280;30288;50.514;9.678;2023-04-09T00:52:00;99532.38;;;6.08;100.00
29903;BME280;30288;50.514;9.678;2023-04-09T00:54:06;99536.53;;;6.05;100.00
29903;BME280;30288;50.514;9.678;2023-04-09T00:56:12;99529.88;;;6.07;100.00
29903;BME280;30288;50.514;9.678;2023-04-09T00:58:17;99529.06;;;6.06;100.00
29903;BME280;30288;50.514;9.678;2023-04-09T01:00:25;99527.38;;;6.05;100.00
29903;BME280;30288;50.514;9.678;2023-04-09T01:02:30;99531.53;;;6.02;100.00
29903;BME280;30288;50.514;9.678;2023-04-09T01:04:37;99534.03;;;5.97;100.00
29903;BME280;30288;50.514;9.678;2023-04-09T01:06:50;99533.16;;;5.95;100.00
29903;BME280;30288;50.514;9.678;2023-04-09T01:09:04;99534.00;;;5.91;100.00
29903;BME280;30288;50.514;9.678;2023-04-09T01:11:19;99527.31;;;5.90;100.00
29903;BME280;30288;50.514;9.678;2023-04-09T01:13:34;99524.00;;;5.91;100.00
29903;BME280;30288;50.514;9.678;2023-04-09T01:15:48;99528.19;;;5.94;100.00
29903;BME280;30288;50.514;9.678;2023-04-09T01:18:05;99525.69;;;5.92;100.00
29903;BME280;30288;50.514;9.678;2023-04-09T01:20:16;99524.00;;;5.91;100.00
29903;BME280;30288;50.514;9.678;2023-04-09T01:22:31;99524.84;;;5.89;100.00
29903;BME280;30288;50.514;9.678;2023-04-09T01:24:54;99526.44;;;5.84;100.00
29903;BME280;30288;50.514;9.678;2023-04-09T01:27:10;99527.25;;;5.78;100.00
29903;BME280;30288;50.514;9.678;2023-04-09T01:29:36;99518.09;;;5.80;100.00
29903;BME280;30288;50.514;9.678;2023-04-09T01:31:43;99523.91;;;5.81;100.00
29903;BME280;30288;50.514;9.678;2023-04-09T01:33:51;99525.59;;;5.82;100.00
29903;BME280;30288;50.514;9.678;2023-04-09T01:35:56;99526.44;;;5.82;100.00
29903;BME280;30288;50.514;9.678;2023-04-09T01:38:03;99522.25;;;5.81;100.00
29903;BME280;30288;50.514;9.678;2023-04-09T01:40:10;99518.09;;;5.80;100.00
29903;BME280;30288;50.514;9.678;2023-04-09T01:42:15;99523.91;;;5.76;100.00
29903;BME280;30288;50.514;9.678;2023-04-09T01:44:23;99521.41;;;5.73;100.00
29903;BME280;30288;50.514;9.678;2023-04-09T01:46:32;99518.91;;;5.73;100.00
29903;BME280;30288;50.514;9.678;2023-04-09T01:48:38;99520.56;;;5.71;100.00
29903;BME280;30288;50.514;9.678;2023-04-09T01:50:44;99526.41;;;5.76;100.00
29903;BME280;30288;50.514;9.678;2023-04-09T01:52:50;99533.91;;;5.70;100.00
29903;BME280;30288;50.514;9.678;2023-04-09T01:54:55;99530.53;;;5.68;100.00
29903;BME280;30288;50.514;9.678;2023-04-09T01:57:00;99528.88;;;5.67;100.00
29903;BME280;30288;50.514;9.678;2023-04-09T01:59:05;99521.38;;;5.64;100.00
29903;BME280;30288;50.514;9.678;2023-04-09T02:01:15;99527.19;;;5.63;100.00
29903;BME280;30288;50.514;9.678;2023-04-09T02:03:32;99528.81;;;5.61;100.00
29903;BME280;30288;50.514;9.678;2023-04-09T02:05:48;99528.81;;;5.58;100.00
29903;BME280;30288;50.514;9.678;2023-04-09T02:08:02;99527.16;;;5.54;100.00
29903;BME280;30288;50.514;9.678;2023-04-09T02:10:09;99532.13;;;5.54;100.00
29903;BME280;30288;50.514;9.678;2023-04-09T02:12:19;99532.94;;;5.45;100.00
29903;BME280;30288;50.514;9.678;2023-04-09T02:14:26;99527.19;;;5.63;100.00
29903;BME280;30288;50.514;9.678;2023-04-09T02:16:32;99530.50;;;5.62;100.00
29903;BME280;30288;50.514;9.678;2023-04-09T02:18:41;99528.88;;;5.64;100.00
29903;BME280;30288;50.514;9.678;2023-04-09T02:20:46;99528.03;;;5.60;100.00
29903;BME280;30288;50.514;9.678;2023-04-09T02:22:51;99528.84;;;5.59;100.00
29903;BME280;30288;50.514;9.678;2023-04-09T02:24:56;99527.19;;;5.60;100.00
29903;BME280;30288;50.514;9.678;2023-04-09T02:27:01;99525.50;;;5.56;100.00
29903;BME280;30288;50.514;9.678;2023-04-09T02:29:07;99526.38;;;5.64;100.00
29903;BME280;30288;50.514;9.678;2023-04-09T02:31:12;99523.91;;;5.70;100.00
29903;BME280;30288;50.514;9.678;2023-04-09T02:33:17;99529.75;;;5.73;100.00
29903;BME280;30288;50.514;9.678;2023-04-09T02:35:25;99528.91;;;5.70;100.00
29903;BME280;30288;50.514;9.678;2023-04-09T02:37:31;99527.19;;;5.63;100.00
29903;BME280;30288;50.514;9.678;2023-04-09T02:39:36;99526.38;;;5.64;100.00
29903;BME280;30288;50.514;9.678;2023-04-09T02:41:41;99528.81;;;5.61;100.00
29903;BME280;30288;50.514;9.678;2023-04-09T02:43:46;99524.69;;;5.64;100.00
29903;BME280;30288;50.514;9.678;2023-04-09T02:45:51;99528.91;;;5.73;100.00
29903;BME280;30288;50.514;9.678;2023-04-09T02:47:56;99526.41;;;5.73;100.00
29903;BME280;30288;50.514;9.678;2023-04-09T02:50:07;99527.22;;;5.67;100.00
29903;BME280;30288;50.514;9.678;2023-04-09T02:52:22;99527.19;;;5.66;100.00
29903;BME280;30288;50.514;9.678;2023-04-09T02:54:28;99527.16;;;5.61;100.00
29903;BME280;30288;50.514;9.678;2023-04-09T02:56:33;99527.19;;;5.63;100.00
29903;BME280;30288;50.514;9.678;2023-04-09T02:58:38;99519.69;;;5.63;100.00
29903;BME280;30288;50.514;9.678;2023-04-09T03:00:43;99526.41;;;5.70;100.00
29903;BME280;30288;50.514;9.678;2023-04-09T03:02:51;99521.38;;;5.71;100.00
29903;BME280;30288;50.514;9.678;2023-04-09T03:04:57;99517.22;;;5.67;100.00
29903;BME280;30288;50.514;9.678;2023-04-09T03:07:02;99513.84;;;5.61;100.00
29903;BME280;30288;50.514;9.678;2023-04-09T03:09:10;99514.69;;;5.63;100.00
29903;BME280;30288;50.514;9.678;2023-04-09T03:11:15;99516.41;;;5.70;100.00
29903;BME280;30288;50.514;9.678;2023-04-09T03:13:20;99511.41;;;5.70;100.00
29903;BME280;30288;50.514;9.678;2023-04-09T03:15:26;99505.56;;;5.68;100.00
29903;BME280;30288;50.514;9.678;2023-04-09T03:17:31;99503.84;;;5.61;100.00
29903;BME280;30288;50.514;9.678;2023-04-09T03:19:36;99508.06;;;5.65;100.00
29903;BME280;30288;50.514;9.678;2023-04-09T03:21:41;99502.19;;;5.63;100.00
29903;BME280;30288;50.514;9.678;2023-04-09T03:23:47;99503.84;;;5.61;100.00
29903;BME280;30288;50.514;9.678;2023-04-09T03:26:02;99504.69;;;5.60;100.00
29903;BME280;30288;50.514;9.678;2023-04-09T03:28:15;99507.16;;;5.54;100.00
29903;BME280;30288;50.514;9.678;2023-04-09T03:30:25;99502.16;;;5.51;100.00
29903;BME280;30288;50.514;9.678;2023-04-09T03:32:32;99507.16;;;5.54;100.00
29903;BME280;30288;50.514;9.678;2023-04-09T03:34:38;99508.84;;;5.55;100.00
29903;BME280;30288;50.514;9.678;2023-04-09T03:36:43;99502.16;;;5.51;100.00
29903;BME280;30288;50.514;9.678;2023-04-09T03:38:56;99500.47;;;5.50;100.00
29903;BME280;30288;50.514;9.678;2023-04-09T03:41:11;99502.13;;;5.48;100.00
29903;BME280;30288;50.514;9.678;2023-04-09T03:43:17;99502.13;;;5.48;100.00
29903;BME280;30288;50.514;9.678;2023-04-09T03:45:26;99505.44;;;5.47;100.00
29903;BME280;30288;50.514;9.678;2023-04-09T03:47:44;99505.44;;;5.44;100.00
29903;BME280;30288;50.514;9.678;2023-04-09T03:49:52;99501.28;;;5.41;100.00
29903;BME280;30288;50.514;9.678;2023-04-09T03:52:01;99498.75;;;5.40;100.00
29903;BME280;30288;50.514;9.678;2023-04-09T03:54:11;99500.41;;;5.38;100.00
29903;BME280;30288;50.514;9.678;2023-04-09T03:56:20;99502.03;;;5.33;100.00
29903;BME280;30288;50.514;9.678;2023-04-09T03:58:25;99507.03;;;5.31;100.00
29903;BME280;30288;50.514;9.678;2023-04-09T04:00:31;99506.19;;;5.26;100.00
29903;BME280;30288;50.514;9.678;2023-04-09T04:02:55;99513.66;;;5.24;100.00
29903;BME280;30288;50.514;9.678;2023-04-09T04:05:23;99502.03;;;5.29;100.00
29903;BME280;30288;50.514;9.678;2023-04-09T04:07:32;99502.91;;;5.35;100.00
29903;BME280;30288;50.514;9.678;2023-04-09T04:09:43;99507.09;;;5.40;100.00
29903;BME280;30288;50.514;9.678;2023-04-09T04:11:53;99505.44;;;5.44;100.00
29903;BME280;30288;50.514;9.678;2023-04-09T04:14:12;99502.94;;;5.41;100.00
29903;BME280;30288;50.514;9.678;2023-04-09T04:16:21;99510.44;;;5.44;100.00
29903;BME280;30288;50.514;9.678;2023-04-09T04:18:29;99505.47;;;5.50;100.00
29903;BME280;30288;50.514;9.678;2023-04-09T04:20:34;99510.44;;;5.47;100.00
29903;BME280;30288;50.514;9.678;2023-04-09T04:22:44;99514.63;;;5.48;100.00
29903;BME280;30288;50.514;9.678;2023-04-09T04:24:50;99514.63;;;5.46;100.00
29903;BME280;30288;50.514;9.678;2023-04-09T04:26:59;99516.31;;;5.50;100.00
29903;BME280;30288;50.514;9.678;2023-04-09T04:29:08;99512.13;;;5.49;100.00
29903;BME280;30288;50.514;9.678;2023-04-09T04:31:23;99515.44;;;5.47;100.00
29903;BME280;30288;50.514;9.678;2023-04-09T04:33:32;99518.78;;;5.46;100.00
29903;BME280;30288;50.514;9.678;2023-04-09T04:35:41;99525.44;;;5.47;100.00
29903;BME280;30288;50.514;9.678;2023-04-09T04:38:03;99530.41;;;5.47;100.00
29903;BME280;30288;50.514;9.678;2023-04-09T04:40:12;99533.72;;;5.38;100.00
29903;BME280;30288;50.514;9.678;2023-04-09T04:42:19;99530.38;;;5.35;100.00
29903;BME280;30288;50.514;9.678;2023-04-09T04:44:25;99532.03;;;5.36;100.00
29903;BME280;30288;50.514;9.678;2023-04-09T04:46:39;99531.22;;;5.35;100.00
29903;BME280;30288;50.514;9.678;2023-04-09T04:48:45;99532.88;;;5.36;100.00
29903;BME280;30288;50.514;9.678;2023-04-09T04:50:58;99533.69;;;5.34;100.00
29903;BME280;30288;50.514;9.678;2023-04-09T04:53:14;99524.50;;;5.29;100.00
29903;BME280;30288;50.514;9.678;2023-04-09T04:55:24;99533.69;;;5.34;100.00
29903;BME280;30288;50.514;9.678;2023-04-09T04:57:32;99530.38;;;5.38;100.00
29903;BME280;30288;50.514;9.678;2023-04-09T04:59:38;99535.41;;;5.41;100.00
29903;BME280;30288;50.514;9.678;2023-04-09T05:01:46;99535.38;;;5.38;100.00
29903;BME280;30288;50.514;9.678;2023-04-09T05:03:52;99534.53;;;5.37;100.00
29903;BME280;30288;50.514;9.678;2023-04-09T05:06:08;99532.88;;;5.35;100.00
29903;BME280;30288;50.514;9.678;2023-04-09T05:08:17;99538.72;;;5.37;100.00
29903;BME280;30288;50.514;9.678;2023-04-09T05:10:25;99532.00;;;5.33;100.00
29903;BME280;30288;50.514;9.678;2023-04-09T05:12:35;99532.88;;;5.36;100.00
29903;BME280;30288;50.514;9.678;2023-04-09T05:14:42;99541.25;;;5.41;100.00
29903;BME280;30288;50.514;9.678;2023-04-09T05:16:47;99542.06;;;5.42;100.00
29903;BME280;30288;50.514;9.678;2023-04-09T05:18:58;99540.41;;;5.47;100.00
29903;BME280;30288;50.514;9.678;2023-04-09T05:21:04;99542.94;;;5.53;100.00
29903;BME280;30288;50.514;9.678;2023-04-09T05:23:10;99539.66;;;5.58;100.00
29903;BME280;30288;50.514;9.678;2023-04-09T05:25:19;99544.66;;;5.60;100.00
29903;BME280;30288;50.514;9.678;2023-04-09T05:27:25;99538.84;;;5.64;100.00
29903;BME280;30288;50.514;9.678;2023-04-09T05:29:37;99538.03;;;5.66;100.00
29903;BME280;30288;50.514;9.678;2023-04-09T05:31:44;99531.38;;;5.67;100.00
29903;BME280;30288;50.514;9.678;2023-04-09T05:34:01;99541.38;;;5.71;100.00
29903;BME280;30288;50.514;9.678;2023-04-09T05:36:14;99536.41;;;5.70;100.00
29903;BME280;30288;50.514;9.678;2023-04-09T05:38:20;99543.09;;;5.79;100.00
29903;BME280;30288;50.514;9.678;2023-04-09T05:40:30;99544.78;;;5.80;100.00
29903;BME280;30288;50.514;9.678;2023-04-09T05:42:40;99548.94;;;5.85;100.00
29903;BME280;30288;50.514;9.678;2023-04-09T05:44:54;99549.00;;;5.88;100.00
29903;BME280;30288;50.514;9.678;2023-04-09T05:47:00;99550.69;;;5.92;100.00
29903;BME280;30288;50.514;9.678;2023-04-09T05:49:13;99556.50;;;5.94;100.00
29903;BME280;30288;50.514;9.678;2023-04-09T05:51:21;99559.03;;;6.00;100.00
29903;BME280;30288;50.514;9.678;2023-04-09T05:53:26;99555.72;;;6.01;100.00
29903;BME280;30288;50.514;9.678;2023-04-09T05:55:32;99551.56;;;6.08;100.00
29903;BME280;30288;50.514;9.678;2023-04-09T05:57:38;99550.72;;;6.13;100.00
29903;BME280;30288;50.514;9.678;2023-04-09T05:59:43;99560.75;;;6.23;100.00
29903;BME280;30288;50.514;9.678;2023-04-09T06:01:52;99552.47;;;6.27;100.00
29903;BME280;30288;50.514;9.678;2023-04-09T06:03:57;99556.66;;;6.44;100.00
29903;BME280;30288;50.514;9.678;2023-04-09T06:06:05;99558.34;;;6.45;100.00
29903;BME280;30288;50.514;9.678;2023-04-09T06:08:10;99554.16;;;6.46;100.00
29903;BME280;30288;50.514;9.678;2023-04-09T06:10:15;99556.66;;;6.46;100.00
29903;BME280;30288;50.514;9.678;2023-04-09T06:12:22;99561.66;;;6.53;100.00
29903;BME280;30288;50.514;9.678;2023-04-09T06:14:27;99557.50;;;6.51;100.00
29903;BME280;30288;50.514;9.678;2023-04-09T06:16:34;99560.88;;;6.74;100.00
29903;BME280;30288;50.514;9.678;2023-04-09T06:18:42;99557.53;;;6.78;100.00
29903;BME280;30288;50.514;9.678;2023-04-09T06:20:48;99555.00;;;6.84;100.00
29903;BME280;30288;50.514;9.678;2023-04-09T06:22:53;99557.50;;;6.75;100.00
29903;BME280;30288;50.514;9.678;2023-04-09T06:24:59;99562.53;;;6.87;100.00
29903;BME280;30288;50.514;9.678;2023-04-09T06:27:04;99557.53;;;6.87;100.00
29903;BME280;30288;50.514;9.678;2023-04-09T06:29:09;99557.53;;;6.96;100.00
29903;BME280;30288;50.514;9.678;2023-04-09T06:31:14;99558.38;;;7.01;100.00
29903;BME280;30288;50.514;9.678;2023-04-09T06:33:20;99555.78;;;7.47;100.00
29903;BME280;30288;50.514;9.678;2023-04-09T06:35:28;99554.13;;;7.43;100.00
29903;BME280;30288;50.514;9.678;2023-04-09T06:37:33;99558.28;;;7.48;100.00
29903;BME280;30288;50.514;9.678;2023-04-09T06:39:39;99554.94;;;7.46;100.00
29903;BME280;30288;50.514;9.678;2023-04-09T06:41:55;99558.31;;;7.35;100.00
29903;BME280;30288;50.514;9.678;2023-04-09T06:44:13;99565.81;;;7.47;100.00
29903;BME280;30288;50.514;9.678;2023-04-09T06:46:18;99559.91;;;7.71;100.00
29903;BME280;30288;50.514;9.678;2023-04-09T06:48:23;99567.41;;;7.75;100.00
29903;BME280;30288;50.514;9.678;2023-04-09T06:50:31;99561.53;;;7.82;100.00
29903;BME280;30288;50.514;9.678;2023-04-09T06:52:36;99562.38;;;7.81;100.00
29903;BME280;30288;50.514;9.678;2023-04-09T06:54:41;99560.66;;;7.89;100.00
29903;BME280;30288;50.514;9.678;2023-04-09T06:56:47;99565.63;;;8.08;100.00
29903;BME280;30288;50.514;9.678;2023-04-09T06:58:53;99562.31;;;8.03;100.00
29903;BME280;30288;50.514;9.678;2023-04-09T07:00:58;99557.94;;;8.41;100.00
29903;BME280;30288;50.514;9.678;2023-04-09T07:03:04;99566.97;;;8.69;100.00
29903;BME280;30288;50.514;9.678;2023-04-09T07:05:10;99567.09;;;8.48;100.00
29903;BME280;30288;50.514;9.678;2023-04-09T07:07:18;99562.13;;;8.42;100.00
29903;BME280;30288;50.514;9.678;2023-04-09T07:09:26;99562.75;;;8.70;100.00
29903;BME280;30288;50.514;9.678;2023-04-09T07:11:32;99565.28;;;8.71;100.00
29903;BME280;30288;50.514;9.678;2023-04-09T07:13:38;99565.34;;;8.62;100.00
29903;BME280;30288;50.514;9.678;2023-04-09T07:15:43;99563.59;;;8.70;100.00
29903;BME280;30288;50.514;9.678;2023-04-09T07:17:48;99568.44;;;8.95;100.00
29903;BME280;30288;50.514;9.678;2023-04-09T07:19:53;99569.78;;;9.35;100.00
29903;BME280;30288;50.514;9.678;2023-04-09T07:21:58;99568.28;;;9.16;100.00
29903;BME280;30288;50.514;9.678;2023-04-09T07:24:06;99563.13;;;9.31;100.00
29903;BME280;30288;50.514;9.678;2023-04-09T07:26:11;99568.00;;;9.43;100.00
29903;BME280;30288;50.514;9.678;2023-04-09T07:28:17;99567.25;;;9.34;100.00
29903;BME280;30288;50.514;9.678;2023-04-09T07:30:22;99568.75;;;9.54;100.00
29903;BME280;30288;50.514;9.678;2023-04-09T07:32:28;99566.03;;;9.70;100.00
29903;BME280;30288;50.514;9.678;2023-04-09T07:34:33;99573.47;;;9.80;100.00
29903;BME280;30288;50.514;9.678;2023-04-09T07:36:38;99570.78;;;9.97;100.00
29903;BME280;30288;50.514;9.678;2023-04-09T07:38:44;99567.13;;;10.22;100.00
29903;BME280;30288;50.514;9.678;2023-04-09T07:40:52;99573.63;;;10.37;100.00
29903;BME280;30288;50.514;9.678;2023-04-09T07:42:57;99576.59;;;10.65;100.00
29903;BME280;30288;50.514;9.678;2023-04-09T07:45:03;99570.34;;;10.88;100.00
29903;BME280;30288;50.514;9.678;2023-04-09T07:47:09;99566.31;;;11.29;100.00
29903;BME280;30288;50.514;9.678;2023-04-09T07:49:14;99569.00;;;11.21;100.00
29903;BME280;30288;50.514;9.678;2023-04-09T07:51:19;99571.38;;;11.29;100.00
29903;BME280;30288;50.514;9.678;2023-04-09T07:53:24;99564.16;;;11.55;100.00
29903;BME280;30288;50.514;9.678;2023-04-09T07:55:30;99566.31;;;11.29;100.00
29903;BME280;30288;50.514;9.678;2023-04-09T07:57:38;99564.22;;;11.52;100.00
29903;BME280;30288;50.514;9.678;2023-04-09T07:59:44;99569.59;;;11.34;100.00
29903;BME280;30288;50.514;9.678;2023-04-09T08:01:49;99556.59;;;11.55;100.00
29903;BME280;30288;50.514;9.678;2023-04-09T08:03:54;99571.09;;;10.95;100.00
29903;BME280;30288;50.514;9.678;2023-04-09T08:06:00;99565.59;;;11.22;100.00
29903;BME280;30288;50.514;9.678;2023-04-09T08:08:05;99562.72;;;11.42;100.00
29903;BME280;30288;50.514;9.678;2023-04-09T08:10:10;99569.28;;;11.51;100.00
29903;BME280;30288;50.514;9.678;2023-04-09T08:12:17;99568.31;;;11.58;100.00
29903;BME280;30288;50.514;9.678;2023-04-09T08:14:25;99574.22;;;11.58;100.00
29903;BME280;30288;50.514;9.678;2023-04-09T08:16:30;99563.94;;;11.67;100.00
29903;BME280;30288;50.514;9.678;2023-04-09T08:18:35;99566.34;;;11.75;100.00
29903;BME280;30288;50.514;9.678;2023-04-09T08:20:40;99561.19;;;11.81;100.00
29903;BME280;30288;50.514;9.678;2023-04-09T08:22:46;99563.09;;;12.11;100.00
29903;BME280;30288;50.514;9.678;2023-04-09T08:24:52;99568.06;;;12.16;100.00
29903;BME280;30288;50.514;9.678;2023-04-09T08:26:57;99567.84;;;12.25;100.00
29903;BME280;30288;50.514;9.678;2023-04-09T08:29:03;99569.16;;;12.43;100.00
29903;BME280;30288;50.514;9.678;2023-04-09T08:31:11;99566.75;;;12.37;100.00
29903;BME280;30288;50.514;9.678;2023-04-09T08:33:17;99562.94;;;12.56;100.00
29903;BME280;30288;50.514;9.678;2023-04-09T08:35:22;99569.13;;;12.44;100.00
29903;BME280;30288;50.514;9.678;2023-04-09T08:37:27;99576.91;;;12.34;100.00
29903;BME280;30288;50.514;9.678;2023-04-09T08:39:32;99575.09;;;12.00;100.00
29903;BME280;30288;50.514;9.678;2023-04-09T08:41:42;99580.94;;;12.42;100.00
29903;BME280;30288;50.514;9.678;2023-04-09T08:43:48;99575.13;;;12.39;100.00
29903;BME280;30288;50.514;9.678;2023-04-09T08:46:00;99579.00;;;12.90;100.00
29903;BME280;30288;50.514;9.678;2023-04-09T08:48:09;99566.81;;;13.06;100.00
29903;BME280;30288;50.514;9.678;2023-04-09T08:50:14;99572.81;;;13.36;100.00
29903;BME280;30288;50.514;9.678;2023-04-09T08:52:30;99560.72;;;13.47;100.00
29903;BME280;30288;50.514;9.678;2023-04-09T08:54:36;99564.72;;;13.86;100.00
29903;BME280;30288;50.514;9.678;2023-04-09T08:56:41;99567.50;;;14.07;100.00
29903;BME280;30288;50.514;9.678;2023-04-09T08:58:48;99565.03;;;13.74;100.00
29903;BME280;30288;50.514;9.678;2023-04-09T09:00:54;99570.94;;;13.44;100.00
29903;BME280;30288;50.514;9.678;2023-04-09T09:03:04;99564.97;;;13.46;100.00
29903;BME280;30288;50.514;9.678;2023-04-09T09:05:12;99562.47;;;13.76;100.00
29903;BME280;30288;50.514;9.678;2023-04-09T09:07:17;99564.97;;;13.77;100.00
29903;BME280;30288;50.514;9.678;2023-04-09T09:09:22;99571.34;;;13.29;100.00
29903;BME280;30288;50.514;9.678;2023-04-09T09:11:28;99566.13;;;13.35;100.00
29903;BME280;30288;50.514;9.678;2023-04-09T09:13:34;99578.41;;;13.48;100.00
29903;BME280;30288;50.514;9.678;2023-04-09T09:15:39;99575.28;;;13.39;100.00
29903;BME280;30288;50.514;9.678;2023-04-09T09:17:53;99574.63;;;13.31;100.00
29903;BME280;30288;50.514;9.678;2023-04-09T09:20:21;99565.94;;;13.41;100.00
29903;BME280;30288;50.514;9.678;2023-04-09T09:22:26;99562.88;;;13.62;100.00
29903;BME280;30288;50.514;9.678;2023-04-09T09:24:32;99566.50;;;13.52;100.00
29903;BME280;30288;50.514;9.678;2023-04-09T09:26:38;99560.34;;;13.62;100.00
29903;BME280;30288;50.514;9.678;2023-04-09T09:28:44;99557.09;;;13.57;100.00
29903;BME280;30288;50.514;9.678;2023-04-09T09:30:49;99565.31;;;13.65;100.00
29903;BME280;30288;50.514;9.678;2023-04-09T09:33:05;99563.78;;;13.89;100.00
29903;BME280;30288;50.514;9.678;2023-04-09T09:35:10;99563.22;;;13.79;100.00
29903;BME280;30288;50.514;9.678;2023-04-09T09:37:28;99555.63;;;13.79;100.00
29903;BME280;30288;50.514;9.678;2023-04-09T09:39:42;99557.13;;;13.86;100.00
29903;BME280;30288;50.514;9.678;2023-04-09T09:41:48;99562.25;;;13.83;100.00
29903;BME280;30288;50.514;9.678;2023-04-09T09:44:12;99558.91;;;13.52;100.00
29903;BME280;30288;50.514;9.678;2023-04-09T09:46:35;99563.97;;;13.52;100.00
29903;BME280;30288;50.514;9.678;2023-04-09T09:48:43;99562.25;;;13.54;100.00
29903;BME280;30288;50.514;9.678;2023-04-09T09:50:51;99562.25;;;13.54;100.00
29903;BME280;30288;50.514;9.678;2023-04-09T09:53:02;99558.50;;;13.67;100.00
29903;BME280;30288;50.514;9.678;2023-04-09T09:55:09;99559.16;;;13.43;100.00
29903;BME280;30288;50.514;9.678;2023-04-09T09:57:19;99564.31;;;13.40;100.00
29903;BME280;30288;50.514;9.678;2023-04-09T09:59:31;99563.97;;;13.52;100.00
29903;BME280;30288;50.514;9.678;2023-04-09T10:01:39;99557.63;;;13.36;100.00
29903;BME280;30288;50.514;9.678;2023-04-09T10:03:45;99558.66;;;13.61;100.00
29903;BME280;30288;50.514;9.678;2023-04-09T10:05:54;99565.00;;;13.45;100.00
29903;BME280;30288;50.514;9.678;2023-04-09T10:08:02;99553.03;;;13.82;100.00
29903;BME280;30288;50.514;9.678;2023-04-09T10:10:08;99552.31;;;13.77;100.00
29903;BME280;30288;50.514;9.678;2023-04-09T10:12:13;99559.25;;;13.71;100.00
29903;BME280;30288;50.514;9.678;2023-04-09T10:14:20;99558.78;;;13.87;100.00
29903;BME280;30288;50.514;9.678;2023-04-09T10:16:26;99565.69;;;13.82;100.00
29903;BME280;30288;50.514;9.678;2023-04-09T10:18:32;99560.97;;;13.69;100.00
29903;BME280;30288;50.514;9.678;2023-04-09T10:20:42;99556.16;;;13.90;100.00
29903;BME280;30288;50.514;9.678;2023-04-09T10:22:51;99554.84;;;13.77;100.00
29903;BME280;30288;50.514;9.678;2023-04-09T10:24:59;99553.94;;;13.49;100.00
29903;BME280;30288;50.514;9.678;2023-04-09T10:27:15;99560.91;;;13.72;100.00
29903;BME280;30288;50.514;9.678;2023-04-09T10:29:27;99558.50;;;13.67;100.00
29903;BME280;30288;50.514;9.678;2023-04-09T10:31:51;99553.88;;;13.50;100.00
29903;BME280;30288;50.514;9.678;2023-04-09T10:34:02;99555.34;;;13.59;100.00
29903;BME280;30288;50.514;9.678;2023-04-09T10:36:11;99553.09;;;13.79;100.00
29903;BME280;30288;50.514;9.678;2023-04-09T10:38:16;99562.13;;;13.88;100.00
29903;BME280;30288;50.514;9.678;2023-04-09T10:40:46;99551.88;;;13.92;100.00
29903;BME280;30288;50.514;9.678;2023-04-09T10:42:54;99552.03;;;14.73;100.00
29903;BME280;30288;50.514;9.678;2023-04-09T10:45:07;99548.53;;;15.02;100.00
29903;BME280;30288;50.514;9.678;2023-04-09T10:47:29;99549.91;;;15.37;100.00
29903;BME280;30288;50.514;9.678;2023-04-09T10:49:36;99555.53;;;16.16;100.00
29903;BME280;30288;50.514;9.678;2023-04-09T10:51:49;99541.22;;;16.35;100.00
29903;BME280;30288;50.514;9.678;2023-04-09T10:53:55;99538.97;;;15.59;100.00
29903;BME280;30288;50.514;9.678;2023-04-09T10:56:14;99541.44;;;15.36;100.00
29903;BME280;30288;50.514;9.678;2023-04-09T10:58:20;99541.97;;;14.96;100.00
29903;BME280;30288;50.514;9.678;2023-04-09T11:00:26;99541.16;;;14.96;100.00
29903;BME280;30288;50.514;9.678;2023-04-09T11:05:21;99540.44;;;14.64;100.00
29903;BME280;30288;50.514;9.678;2023-04-09T11:07:27;99534.22;;;14.74;100.00
29903;BME280;30288;50.514;9.678;2023-04-09T11:09:34;99528.69;;;14.88;100.00
29903;BME280;30288;50.514;9.678;2023-04-09T11:11:42;99523.97;;;15.53;100.00
29903;BME280;30288;50.514;9.678;2023-04-09T11:13:47;99517.84;;;15.34;100.00
29903;BME280;30288;50.514;9.678;2023-04-09T11:15:54;99529.75;;;14.82;100.00
29903;BME280;30288;50.514;9.678;2023-04-09T11:18:00;99530.63;;;14.81;100.00
29903;BME280;30288;50.514;9.678;2023-04-09T11:20:09;99519.19;;;15.44;100.00